KEVV/EVV METAR and TAF weather

Enter ICAO airport designator
Station Type Date Time Source
KEVV METAR 2019/10/15 21:54 UTC NOAA

KEVV 152154Z AUTO 22010KT 10SM OVC034 23/14 A2985 RMK AO2 SLP105 T02280144


Station Type Date Time Source
KEVV Decoded METAR 2019/10/15 21:54 UTC NOAA

EVANSVILLE REGIONAL, IN, United States (KEVV) 38-02N 087-32W 117M
Oct 15, 2019 - 05:54 PM EDT / 2019.10.15 2154 UTC
Wind: from the SW (220 degrees) at 12 MPH (10 KT):0
Visibility: 10 mile(s):0
Sky conditions: overcast
Temperature: 73.0 F (22.8 C)
Dew Point: 57.9 F (14.4 C)
Relative Humidity: 59%
Pressure (altimeter): 29.85 in. Hg (1010 hPa)
ob: KEVV 152154Z AUTO 22010KT 10SM OVC034 23/14 A2985 RMK AO2 SLP105 T02280144
cycle: 22

Station Type Date Time Source
KEVV TAF 2019/10/15 19:36 UTC NOAA

TAF
AMD KEVV 151835Z 1519/1618 20010G20KT P6SM SCT030 BKN060
FM160000 24006KT 6SM SHRA BR SCT006 OVC035
TEMPO 1601/1604 4SM TS BR BKN006CB
FM160400 27008KT 5SM BR VCSH SCT005 OVC021
FM160600 30012G20KT 6SM BR VCSH SCT010 OVC035
FM160800 32012KT P6SM SCT100
FM161500 32011KT P6SM BKN040

Example: see airport list